ADDS METAR Data INFO
IDs: Format: Raw Decoded Include TAF

Data at: 0249 UTC 21 Jan 2018

KLWT 210154Z AUTO 22013KT 10SM CLR M04/M08 A2992 RMK AO2 SLP174 T10391083
KLWT 210054Z AUTO 21012KT 10SM CLR M04/M08 A2991 RMK AO2 SLP171 T10391078
KLWT 202354Z AUTO 21010KT 10SM CLR M03/M07 A2989 RMK AO2 SLP159 T10281067 10006 21028 53010
KLWT 202254Z AUTO 22009KT 10SM CLR M01/M06 A2988 RMK AO2 SLP151 T10111056
KLWT 202154Z AUTO 22009KT 10SM CLR 00/M06 A2987 RMK AO2 SLP145 T00001061
KLWT 202054Z AUTO 22010KT 10SM CLR 00/M06 A2986 RMK AO2 SLP141 T00001061 58006
KLWT 201954Z AUTO 22012KT 10SM CLR 00/M07 A2986 RMK AO2 SLP143 T00001072
KLWT 201854Z AUTO 22014KT 10SM CLR M01/M07 A2988 RMK AO2 SLP150 T10061072
KLWT 201754Z AUTO 22013KT 10SM CLR M01/M07 A2988 RMK AO2 SLP151 T10111072 11011 21067 51005
KLWT 201654Z AUTO 22012KT 10SM CLR M03/M08 A2987 RMK AO2 SLP152 T10281083
KLWT 201554Z AUTO 22013KT 10SM CLR M04/M09 A2987 RMK AO2 SLP151 T10441089
KLWT 201454Z AUTO 22009KT 10SM CLR M06/M09 A2986 RMK AO2 SLP149 T10561094 53010
KLWT 201354Z AUTO 21011KT 10SM CLR M06/M09 A2985 RMK AO2 SLP146 T10611094
KLWT 201254Z AUTO 22010KT 10SM CLR M06/M09 A2983 RMK AO2 SLP135 T10611094
KLWT 201154Z AUTO 25015KT 10SM CLR M04/M09 A2983 RMK AO2 SLP131 T10441089 11033 21044 51006
KLWT 201054Z AUTO 22015KT 10SM CLR M04/M09 A2982 RMK AO2 SLP128 T10391089
KLWT 200954Z AUTO 22014KT 10SM CLR M04/M08 A2982 RMK AO2 SLP124 T10391083
KLWT 200854Z AUTO 21017KT 10SM CLR M03/M08 A2981 RMK AO2 SLP122 T10331083 51002
KLWT 200754Z AUTO 21014KT 10SM CLR M04/M09 A2980 RMK AO2 SLP121 T10391089
KLWT 200654Z AUTO 21011KT 10SM CLR M04/M09 A2981 RMK AO2 SLP122 T10391089 400221044
KLWT 200554Z AUTO 22013KT 10SM CLR M04/M08 A2980 RMK AO2 SLP120 T10391083 10011 21044 53013
KLWT 200454Z AUTO 22011KT 10SM CLR M03/M07 A2979 RMK AO2 SLP115 T10331072
KLWT 200354Z AUTO 23011KT 10SM CLR M03/M07 A2977 RMK AO2 SLP107 T10281067
KLWT 200254Z AUTO 24009KT 10SM FEW065 M01/M04 A2976 RMK AO2 SLP099 T10111039 53008
KLWT 200154Z AUTO 21008KT 10SM CLR M02/M04 A2973 RMK AO2 SLP092 T10171039
KLWT 200054Z AUTO 21005KT 10SM SCT110 00/M03 A2973 RMK AO2 SLP089 T00001028
KLWT 192354Z AUTO 24008KT 10SM BKN080 OVC095 01/M03 A2973 RMK AO2 SLP089 T00061028 10022 20006 53015
KLWT 192254Z AUTO 24009KT 10SM OVC090 01/M03 A2971 RMK AO2 SLP082 T00111028
KLWT 192154Z AUTO 31005KT 10SM BKN060 OVC075 02/M03 A2969 RMK AO2 SLP073 T00221028
KLWT 192054Z AUTO 27007KT 10SM OVC100 01/M01 A2968 RMK AO2 SLP070 T00111011 53002
KLWT 191954Z AUTO 26009KT 10SM CLR 02/M02 A2967 RMK AO2 SLP063 T00171017
KLWT 191854Z AUTO 26004KT 10SM SCT100 02/M01 A2967 RMK AO2 SLP065 T00171006
KLWT 191754Z AUTO 00000KT 10SM OVC095 02/01 A2967 RMK AO2 SLP064 60000 T00170011 10022 20006 51015
KLWT 191654Z AUTO 20005KT 10SM OVC100 01/01 A2965 RMK AO2 SLP060 T00060006
KLWT 191554Z AUTO 00000KT 10SM SCT050 BKN060 OVC075 02/01 A2965 RMK AO2 SLP055 T00170006
KLWT 191454Z AUTO 16005KT 10SM SCT070 OVC090 02/00 A2962 RMK AO2 SLP045 60000 T00220000 58006